Terminal Aerodrome Forecast
Issued by NWS Atlanta, GA

Home | Current Version | Previous Version | Text Only | Print | Product List | Glossary On
Versions: 1 2 3 4 5 6 7 8 9 10 11 12 13 14 15 16 17 18 19 20 21 22 23 24 25 26 27 28 29 30 31 32 33
238
FTUS42 KFFC 271350 AAA
TAFAHN
TAF AMD
KAHN 271350Z 2714/2812 00000KT P6SM OVC010
     FM271500 20006KT P6SM BKN020
     FM271800 22010KT P6SM VCSH BKN045 PROB30 2802/2805 4SM -TSRA
      BKN045CB
     FM280500 17005KT P6SM VCSH BKN035
     FM280900 22005KT 4SM BR OVC007=

USA.gov is the U.S. government's official web portal to all federal, state and local government web resources and services.